createdAt,value
2019-04-25T00:02:01.850Z,48.04
2019-04-25T00:04:31.521Z,48.41
2019-04-25T00:07:00.135Z,49.70
2019-04-25T00:09:31.795Z,49.17
2019-04-25T00:12:02.151Z,49.24
2019-04-25T00:14:31.442Z,49.03
2019-04-25T00:17:01.727Z,49.08
2019-04-25T00:19:31.602Z,49.08
2019-04-25T00:22:05.464Z,49.10
2019-04-25T00:24:44.950Z,49.17
2019-04-25T00:27:13.760Z,49.24
2019-04-25T00:29:43.949Z,49.54
2019-04-25T00:32:12.559Z,49.58
2019-04-25T00:34:44.255Z,49.77
2019-04-25T00:37:12.255Z,50.30
2019-04-25T00:39:44.784Z,50.64
2019-04-25T00:42:12.197Z,50.31
2019-04-25T00:44:43.501Z,50.30
2019-04-25T00:47:11.751Z,50.34
2019-04-25T00:49:42.107Z,50.21
2019-04-25T00:52:11.622Z,50.09
2019-04-25T00:54:41.450Z,49.72
2019-04-25T00:57:12.073Z,49.83
2019-04-25T00:59:49.718Z,50.03
2019-04-25T01:02:31.410Z,50.28
2019-04-25T01:05:01.678Z,51.09
2019-04-25T01:07:34.069Z,51.98
2019-04-25T01:10:02.467Z,53.03
2019-04-25T01:12:31.396Z,53.56
2019-04-25T01:15:01.553Z,53.69
2019-04-25T01:17:31.464Z,53.77
2019-04-25T01:20:00.095Z,53.95
2019-04-25T01:22:28.567Z,54.68
2019-04-25T01:24:57.293Z,55.79
2019-04-25T01:27:25.748Z,55.96
2019-04-25T01:29:55.293Z,56.00
2019-04-25T01:32:30.675Z,56.13
2019-04-25T01:35:09.357Z,56.15
2019-04-25T01:38:06.201Z,56.49
2019-04-25T01:40:45.807Z,56.93
2019-04-25T01:43:38.033Z,57.10
2019-04-25T01:46:06.513Z,57.54
2019-04-25T01:48:35.142Z,57.51
2019-04-25T01:51:04.096Z,57.27
2019-04-25T01:53:33.859Z,57.45
2019-04-25T01:56:07.464Z,57.64
2019-04-25T01:58:33.771Z,57.86
2019-04-25T02:01:03.157Z,58.09
2019-04-25T02:03:34.250Z,58.19
2019-04-25T02:06:04.777Z,58.36
2019-04-25T02:08:34.075Z,59.61
2019-04-25T02:11:20.486Z,59.05
2019-04-25T02:13:49.075Z,59.20
2019-04-25T02:16:17.720Z,60.20
2019-04-25T02:18:46.218Z,60.90
2019-04-25T02:21:14.668Z,60.29
2019-04-25T02:23:44.178Z,61.03
2019-04-25T02:26:18.219Z,60.89
2019-04-25T02:28:43.743Z,60.81
2019-04-25T02:31:17.597Z,61.26
2019-04-25T02:33:44.305Z,61.77
2019-04-25T02:36:15.053Z,61.15
2019-04-25T02:38:44.191Z,60.72
2019-04-25T02:41:14.702Z,60.86
2019-04-25T02:43:45.058Z,61.04
2019-04-25T02:46:31.022Z,61.35
2019-04-25T02:49:31.709Z,61.34
2019-04-25T02:52:03.555Z,61.77
2019-04-25T02:54:31.834Z,63.93
2019-04-25T02:57:00.497Z,61.84
2019-04-25T02:59:29.473Z,62.01
2019-04-25T03:01:59.159Z,62.67
2019-04-25T03:04:27.687Z,62.32
2019-04-25T03:06:58.417Z,62.53
2019-04-25T03:09:26.628Z,61.91
2019-04-25T03:11:55.169Z,61.88
2019-04-25T03:14:26.367Z,61.75
2019-04-25T03:16:54.412Z,61.93
2019-04-25T03:19:34.221Z,62.24
2019-04-25T03:22:08.388Z,62.03
2019-04-25T03:24:35.169Z,62.37
2019-04-25T03:27:05.220Z,62.26
2019-04-25T03:29:34.255Z,63.11
2019-04-25T03:32:08.796Z,62.55
2019-04-25T03:34:35.166Z,62.13
2019-04-25T03:37:05.320Z,62.18
2019-04-25T03:39:34.312Z,62.23
2019-04-25T03:42:04.281Z,62.62
2019-04-25T03:44:33.801Z,62.62
2019-04-25T03:47:05.258Z,62.28
2019-04-25T03:49:33.668Z,62.53
2019-04-25T03:52:02.867Z,62.55
2019-04-25T03:54:33.410Z,62.65
2019-04-25T03:57:02.348Z,62.76
2019-04-25T03:59:33.595Z,62.87
2019-04-25T04:02:03.062Z,63.09
2019-04-25T04:04:33.520Z,63.20
2019-04-25T04:07:04.418Z,63.25
2019-04-25T04:09:33.823Z,63.31
2019-04-25T04:12:04.298Z,63.36
2019-04-25T04:14:33.842Z,63.62
2019-04-25T04:17:14.440Z,63.69
2019-04-25T04:19:50.170Z,64.12
2019-04-25T04:22:27.967Z,64.00
2019-04-25T04:24:58.141Z,64.04
2019-04-25T04:27:26.727Z,64.43
2019-04-25T04:29:55.477Z,64.42
2019-04-25T04:32:24.296Z,64.15
2019-04-25T04:34:53.680Z,64.14
2019-04-25T04:37:23.653Z,64.30
2019-04-25T04:39:53.646Z,64.43
2019-04-25T04:42:23.698Z,64.46
2019-04-25T04:44:53.421Z,64.83
2019-04-25T04:47:23.564Z,64.91
2019-04-25T04:49:54.015Z,65.06
2019-04-25T04:52:25.489Z,64.79
2019-04-25T04:55:03.702Z,64.92
2019-04-25T04:57:32.561Z,64.98
2019-04-25T04:59:53.693Z,64.86
2019-04-25T05:02:39.584Z,64.82
2019-04-25T05:05:25.403Z,64.70
2019-04-25T05:07:59.555Z,64.75
2019-04-25T05:10:28.020Z,64.74
2019-04-25T05:12:56.523Z,65.07
2019-04-25T05:15:25.221Z,64.74
2019-04-25T05:17:54.273Z,64.54
2019-04-25T05:20:24.179Z,64.54
2019-04-25T05:22:53.319Z,64.40
2019-04-25T05:25:24.597Z,64.22
2019-04-25T05:28:00.796Z,64.19
2019-04-25T05:30:29.717Z,63.98
2019-04-25T05:32:58.314Z,63.75
2019-04-25T05:35:26.970Z,63.87
2019-04-25T05:37:55.443Z,63.94
2019-04-25T05:40:24.494Z,64.03
2019-04-25T05:43:03.318Z,63.95
2019-04-25T05:45:33.866Z,63.85
2019-04-25T05:48:05.683Z,63.98
2019-04-25T05:50:33.852Z,63.81
2019-04-25T05:53:04.164Z,63.82
2019-04-25T05:55:34.140Z,63.58
2019-04-25T05:58:03.845Z,63.35
2019-04-25T06:00:34.134Z,63.20
2019-04-25T06:03:03.618Z,63.23
2019-04-25T06:05:33.510Z,63.09
2019-04-25T06:08:04.140Z,63.08
2019-04-25T06:10:54.602Z,62.95
2019-04-25T06:13:39.668Z,62.78
2019-04-25T06:16:13.412Z,62.59
2019-04-25T06:18:51.323Z,62.74
2019-04-25T06:21:20.032Z,62.62
2019-04-25T06:24:16.857Z,62.55
2019-04-25T06:27:11.412Z,62.60
2019-04-25T06:29:39.909Z,62.60
2019-04-25T06:32:08.710Z,62.56
2019-04-25T06:34:37.366Z,62.24
2019-04-25T06:37:06.253Z,62.30
2019-04-25T06:39:34.909Z,62.27
2019-04-25T06:42:04.018Z,62.24
2019-04-25T06:44:43.890Z,62.03
2019-04-25T06:47:38.716Z,61.98
2019-04-25T06:50:07.479Z,61.82
2019-04-25T06:52:36.224Z,61.83
2019-04-25T06:55:05.318Z,61.73
2019-04-25T06:57:34.194Z,61.60
2019-04-25T07:00:04.340Z,61.47
2019-04-25T07:02:33.579Z,61.31
2019-04-25T07:05:03.996Z,61.33
2019-04-25T07:07:34.880Z,61.32
2019-04-25T07:10:03.602Z,61.09
2019-04-25T07:12:34.447Z,61.20
2019-04-25T07:15:03.874Z,61.13
2019-04-25T07:17:34.326Z,61.02
2019-04-25T07:20:03.900Z,60.79
2019-04-25T07:22:34.776Z,60.87
2019-04-25T07:25:03.619Z,60.63
2019-04-25T07:27:44.762Z,60.42
2019-04-25T07:30:46.843Z,60.36
2019-04-25T07:33:15.384Z,60.38
2019-04-25T07:35:43.835Z,60.18
2019-04-25T07:38:13.958Z,60.04
2019-04-25T07:40:43.369Z,60.21
2019-04-25T07:43:13.403Z,60.09
2019-04-25T07:45:43.465Z,59.91
2019-04-25T07:48:13.853Z,59.70
2019-04-25T07:50:43.863Z,59.46
2019-04-25T07:53:14.268Z,59.28
2019-04-25T07:55:43.318Z,59.34
2019-04-25T07:58:11.816Z,59.31
2019-04-25T08:00:40.281Z,59.28
2019-04-25T08:03:08.773Z,59.16
2019-04-25T08:05:37.891Z,59.15
2019-04-25T08:08:06.632Z,59.14
2019-04-25T08:10:56.068Z,58.88
2019-04-25T08:13:26.330Z,58.63
2019-04-25T08:15:55.815Z,58.76
2019-04-25T08:18:25.420Z,58.49
2019-04-25T08:20:54.161Z,58.29
2019-04-25T08:23:23.819Z,58.02
2019-04-25T08:25:52.320Z,57.91
2019-04-25T08:28:20.796Z,57.74
2019-04-25T08:30:49.500Z,57.40
2019-04-25T08:33:17.950Z,57.39
2019-04-25T08:36:03.646Z,57.31
2019-04-25T08:38:16.640Z,56.67
2019-04-25T08:40:45.330Z,56.67
2019-04-25T08:43:14.672Z,56.42
2019-04-25T08:45:44.261Z,56.32
2019-04-25T08:48:13.588Z,56.00
2019-04-25T08:51:01.666Z,55.72
2019-04-25T08:53:36.593Z,55.83
2019-04-25T08:56:11.535Z,55.40
2019-04-25T08:58:45.981Z,54.96
2019-04-25T09:01:34.210Z,54.81
2019-04-25T09:04:13.323Z,54.88
2019-04-25T09:06:42.296Z,54.57
2019-04-25T09:09:10.723Z,54.15
2019-04-25T09:11:40.126Z,54.08
2019-04-25T09:14:08.613Z,54.19
2019-04-25T09:16:37.888Z,53.70
2019-04-25T09:19:06.419Z,53.32
2019-04-25T09:21:36.593Z,53.07
2019-04-25T09:24:05.310Z,53.24
2019-04-25T09:26:36.088Z,53.22
2019-04-25T09:29:16.333Z,53.31
2019-04-25T09:31:37.536Z,52.80
2019-04-25T09:34:05.226Z,52.85
2019-04-25T09:36:33.747Z,52.28
2019-04-25T09:39:08.122Z,52.25
2019-04-25T09:41:36.663Z,52.50
2019-04-25T09:44:06.796Z,52.28
2019-04-25T09:46:37.219Z,52.27
2019-04-25T09:49:14.185Z,52.04
2019-04-25T09:51:47.028Z,52.40
2019-04-25T09:54:46.829Z,51.72
2019-04-25T09:57:53.249Z,51.77
2019-04-25T10:00:38.996Z,51.56
2019-04-25T10:03:07.475Z,51.49
2019-04-25T10:05:36.996Z,51.18
2019-04-25T10:08:05.593Z,50.97
2019-04-25T10:10:34.168Z,50.93
2019-04-25T10:13:04.211Z,50.78
2019-04-25T10:15:54.695Z,50.50
2019-04-25T10:18:23.413Z,50.32
2019-04-25T10:20:51.982Z,50.21
2019-04-25T10:23:20.453Z,50.31
2019-04-25T10:25:49.189Z,50.30
2019-04-25T10:28:17.794Z,49.97
2019-04-25T10:30:46.923Z,49.51
2019-04-25T10:33:15.411Z,49.65
2019-04-25T10:35:50.680Z,49.46
2019-04-25T10:38:14.389Z,49.19
2019-04-25T10:40:45.148Z,48.88
2019-04-25T10:43:14.485Z,48.96
2019-04-25T10:45:44.779Z,48.72
2019-04-25T10:48:13.669Z,48.76
2019-04-25T10:50:42.254Z,48.65
2019-04-25T10:53:10.726Z,48.16
2019-04-25T10:55:39.167Z,48.18
2019-04-25T10:58:07.834Z,47.49
2019-04-25T11:00:38.284Z,47.44
2019-04-25T11:03:18.080Z,47.20
2019-04-25T11:05:47.585Z,47.53
2019-04-25T11:08:16.926Z,47.42
2019-04-25T11:10:47.502Z,46.91
2019-04-25T11:13:15.986Z,46.77
2019-04-25T11:15:44.917Z,46.61
2019-04-25T11:18:15.218Z,46.64
2019-04-25T11:20:44.689Z,46.30
2019-04-25T11:23:13.974Z,46.05
2019-04-25T11:25:43.548Z,46.00
2019-04-25T11:28:14.413Z,45.90
2019-04-25T11:30:45.180Z,45.49
2019-04-25T11:33:14.297Z,45.38
2019-04-25T11:35:43.939Z,45.23
2019-04-25T11:38:15.307Z,45.43
2019-04-25T11:40:51.272Z,44.35
2019-04-25T11:43:19.474Z,44.07
2019-04-25T11:45:47.942Z,43.85
2019-04-25T11:48:16.425Z,43.55
2019-04-25T11:50:48.986Z,43.63
2019-04-25T11:53:15.109Z,43.29
2019-04-25T11:55:43.640Z,42.59
2019-04-25T11:58:14.153Z,42.86
2019-04-25T12:00:43.496Z,42.50
2019-04-25T12:03:12.938Z,42.20
2019-04-25T12:05:42.954Z,41.82
2019-04-25T12:08:11.593Z,41.71
2019-04-25T12:10:42.874Z,41.22
2019-04-25T12:13:13.346Z,41.25
2019-04-25T12:15:43.396Z,40.89
2019-04-25T12:18:13.707Z,39.76
2019-04-25T12:20:42.239Z,39.19
2019-04-25T12:23:10.757Z,38.97
2019-04-25T12:25:39.414Z,38.60
2019-04-25T12:28:07.889Z,39.22
2019-04-25T12:30:40.074Z,38.83
2019-04-25T12:33:18.416Z,38.58
2019-04-25T12:35:36.806Z,38.55
2019-04-25T12:38:05.366Z,37.96
2019-04-25T12:40:34.342Z,36.88
2019-04-25T12:43:03.154Z,37.43
2019-04-25T12:46:01.136Z,37.35
2019-04-25T12:48:29.781Z,37.14
2019-04-25T12:50:58.249Z,37.16
2019-04-25T12:53:26.702Z,36.64
2019-04-25T12:55:56.142Z,36.67
2019-04-25T12:58:24.633Z,36.67
2019-04-25T13:00:57.176Z,36.27
2019-04-25T13:03:24.167Z,36.27
2019-04-25T13:05:52.708Z,36.10
2019-04-25T13:08:21.186Z,36.05
2019-04-25T13:10:49.834Z,35.92
2019-04-25T13:13:18.290Z,35.84
2019-04-25T13:15:46.757Z,35.89
2019-04-25T13:18:15.239Z,35.47
2019-04-25T13:20:43.706Z,35.38
2019-04-25T13:23:14.352Z,35.08
2019-04-25T13:25:44.155Z,34.95
2019-04-25T13:28:37.808Z,34.30
2019-04-25T13:31:24.208Z,34.66
2019-04-25T13:34:01.813Z,34.45
2019-04-25T13:36:45.030Z,34.56
2019-04-25T13:39:18.628Z,34.30
2019-04-25T13:41:47.086Z,33.58
2019-04-25T13:44:15.570Z,33.85
2019-04-25T13:46:44.023Z,33.70
2019-04-25T13:49:14.108Z,33.31
2019-04-25T13:51:42.661Z,33.20
2019-04-25T13:54:11.123Z,33.06
2019-04-25T13:56:40.690Z,32.88
2019-04-25T13:59:09.517Z,32.83
2019-04-25T14:01:38.475Z,32.94
2019-04-25T14:04:08.042Z,32.67
2019-04-25T14:06:36.497Z,32.63
2019-04-25T14:09:07.739Z,32.52
2019-04-25T14:11:36.200Z,31.72
2019-04-25T14:14:04.654Z,32.45
2019-04-25T14:16:50.569Z,32.06
2019-04-25T14:19:36.968Z,31.98
2019-04-25T14:22:05.927Z,31.91
2019-04-25T14:24:35.812Z,31.62
2019-04-25T14:27:04.524Z,31.56
2019-04-25T14:29:33.035Z,31.46
2019-04-25T14:32:03.229Z,31.34
2019-04-25T14:34:32.278Z,31.29
2019-04-25T14:37:01.892Z,31.56
2019-04-25T14:39:30.441Z,31.33
2019-04-25T14:41:59.059Z,31.35
2019-04-25T14:44:28.625Z,31.12
2019-04-25T14:46:57.353Z,31.13
2019-04-25T14:49:26.288Z,30.24
2019-04-25T14:51:54.772Z,30.26
2019-04-25T14:54:29.145Z,30.23
2019-04-25T14:57:05.438Z,30.04
2019-04-25T14:59:34.155Z,29.91
2019-04-25T15:02:02.674Z,29.47
2019-04-25T15:04:31.170Z,29.71
2019-04-25T15:06:59.650Z,29.22
2019-04-25T15:09:28.835Z,29.36
2019-04-25T15:11:57.349Z,29.68
2019-04-25T15:14:26.929Z,29.81
2019-04-25T15:16:55.523Z,29.89
2019-04-25T15:19:24.249Z,29.73
2019-04-25T15:21:52.895Z,29.53
2019-04-25T15:24:21.366Z,29.81
2019-04-25T15:26:50.169Z,29.64
2019-04-25T15:29:18.640Z,29.71
2019-04-25T15:31:55.762Z,29.75
2019-04-25T15:34:17.680Z,29.63
2019-04-25T15:36:51.916Z,29.57
2019-04-25T15:39:42.182Z,29.45
2019-04-25T15:42:35.319Z,29.46
2019-04-25T15:45:20.097Z,29.12
2019-04-25T15:47:48.628Z,28.82
2019-04-25T15:50:17.337Z,28.47
2019-04-25T15:52:46.168Z,28.29
2019-04-25T15:55:14.864Z,28.08
2019-04-25T15:57:43.378Z,27.86
2019-04-25T16:00:18.132Z,27.68
2019-04-25T16:02:46.599Z,27.29
2019-04-25T16:05:15.101Z,27.25
2019-04-25T16:07:44.001Z,27.20
2019-04-25T16:10:13.167Z,26.96
2019-04-25T16:12:41.657Z,26.90
2019-04-25T16:15:10.121Z,26.90
2019-04-25T16:17:38.672Z,26.92
2019-04-25T16:20:07.209Z,26.83
2019-04-25T16:22:36.623Z,26.70
2019-04-25T16:25:05.504Z,26.62
2019-04-25T16:27:33.998Z,26.59
2019-04-25T16:30:02.586Z,26.56
2019-04-25T16:32:31.345Z,26.57
2019-04-25T16:35:00.153Z,26.70
2019-04-25T16:37:29.147Z,26.72
2019-04-25T16:39:57.759Z,26.74
2019-04-25T16:42:26.202Z,26.64
2019-04-25T16:44:54.681Z,26.60
2019-04-25T16:47:24.796Z,26.55
2019-04-25T16:49:53.458Z,26.52
2019-04-25T16:52:22.407Z,26.55
2019-04-25T16:54:51.117Z,26.60
2019-04-25T16:57:19.683Z,26.96
2019-04-25T16:59:48.314Z,27.24
2019-04-25T17:02:17.042Z,27.38
2019-04-25T17:04:45.516Z,27.70
2019-04-25T17:07:14.582Z,27.75
2019-04-25T17:09:43.340Z,27.70
2019-04-25T17:12:13.429Z,27.62
2019-04-25T17:14:55.924Z,27.53
2019-04-25T17:17:33.745Z,27.62
2019-04-25T17:20:11.691Z,27.76
2019-04-25T17:22:40.322Z,28.01
2019-04-25T17:25:08.958Z,28.25
2019-04-25T17:27:37.820Z,28.40
2019-04-25T17:30:06.398Z,28.60
2019-04-25T17:32:52.860Z,28.74
2019-04-25T17:35:32.216Z,28.85
2019-04-25T17:38:11.528Z,28.93
2019-04-25T17:40:40.002Z,28.91
2019-04-25T17:43:11.342Z,29.03
2019-04-25T17:45:39.191Z,29.16
2019-04-25T17:48:07.674Z,29.30
2019-04-25T17:50:36.165Z,29.42
2019-04-25T17:53:04.644Z,29.52
2019-04-25T17:55:33.330Z,29.60
2019-04-25T17:58:01.964Z,29.69
2019-04-25T18:00:41.999Z,29.80
2019-04-25T18:03:11.465Z,29.84
2019-04-25T18:05:40.026Z,29.95
2019-04-25T18:08:08.960Z,30.09
2019-04-25T18:10:37.796Z,30.20
2019-04-25T18:13:09.323Z,30.23
2019-04-25T18:15:43.864Z,30.39
2019-04-25T18:18:20.424Z,30.45
2019-04-25T18:20:49.139Z,30.54
2019-04-25T18:23:37.082Z,30.69
2019-04-25T18:26:30.790Z,30.78
2019-04-25T18:29:05.829Z,30.94
2019-04-25T18:31:35.525Z,31.09
2019-04-25T18:34:06.791Z,31.15
2019-04-25T18:36:41.616Z,31.18
2019-04-25T18:39:21.212Z,31.26
2019-04-25T18:42:10.050Z,31.30
2019-04-25T18:44:38.533Z,31.41
2019-04-25T18:47:07.320Z,31.52
2019-04-25T18:49:36.359Z,31.66
2019-04-25T18:52:09.355Z,31.69
2019-04-25T18:54:50.557Z,31.79
2019-04-25T18:57:31.545Z,31.83
2019-04-25T19:00:16.173Z,31.97
2019-04-25T19:02:54.282Z,32.10
2019-04-25T19:05:39.831Z,32.16
2019-04-25T19:08:09.167Z,32.21
2019-04-25T19:10:39.446Z,32.34
2019-04-25T19:13:12.855Z,32.48
2019-04-25T19:15:38.830Z,32.62
2019-04-25T19:18:08.213Z,32.65
2019-04-25T19:20:36.878Z,32.74
2019-04-25T19:23:05.682Z,32.83
2019-04-25T19:25:34.165Z,32.95
2019-04-25T19:28:02.931Z,33.03
2019-04-25T19:30:31.626Z,33.17
2019-04-25T19:33:00.108Z,33.24
2019-04-25T19:35:28.843Z,33.34
2019-04-25T19:37:58.728Z,33.45
2019-04-25T19:40:55.345Z,33.58
2019-04-25T19:43:28.058Z,33.65
2019-04-25T19:45:56.687Z,33.73
2019-04-25T19:48:25.427Z,33.90
2019-04-25T19:50:54.039Z,34.06
2019-04-25T19:53:22.480Z,34.18
2019-04-25T19:55:51.792Z,34.22
2019-04-25T19:58:20.566Z,34.23
2019-04-25T20:00:50.919Z,34.29
2019-04-25T20:03:49.444Z,34.41
2019-04-25T20:06:17.223Z,34.54
2019-04-25T20:08:56.743Z,34.50
2019-04-25T20:11:40.876Z,34.49
2019-04-25T20:14:09.316Z,34.63
2019-04-25T20:16:44.886Z,34.78
2019-04-25T20:19:13.769Z,34.82
2019-04-25T20:21:42.225Z,34.90
2019-04-25T20:24:10.677Z,34.98
2019-04-25T20:26:39.128Z,35.00
2019-04-25T20:29:07.770Z,35.06
2019-04-25T20:31:36.223Z,35.04
2019-04-25T20:34:06.241Z,35.03
2019-04-25T20:36:34.824Z,35.08
2019-04-25T20:39:03.565Z,35.14
2019-04-25T20:41:32.022Z,35.14
2019-04-25T20:44:00.466Z,35.26
2019-04-25T20:46:29.332Z,35.30
2019-04-25T20:48:57.770Z,35.42
2019-04-25T20:51:26.270Z,35.44
2019-04-25T20:53:54.940Z,35.47
2019-04-25T20:56:23.404Z,35.73
2019-04-25T20:58:51.866Z,35.64
2019-04-25T21:01:20.324Z,35.61
2019-04-25T21:03:49.818Z,35.74
2019-04-25T21:06:38.599Z,35.92
2019-04-25T21:09:07.321Z,35.89
2019-04-25T21:11:35.816Z,35.97
2019-04-25T21:14:22.573Z,35.94
2019-04-25T21:16:58.589Z,36.05
2019-04-25T21:19:29.697Z,36.17
2019-04-25T21:21:58.765Z,36.16
2019-04-25T21:24:27.194Z,36.28
2019-04-25T21:26:57.072Z,36.32
2019-04-25T21:29:25.865Z,36.31
2019-04-25T21:31:54.692Z,36.32
2019-04-25T21:34:26.784Z,36.41
2019-04-25T21:36:53.502Z,36.40
2019-04-25T21:39:28.439Z,36.50
2019-04-25T21:42:03.213Z,36.58
2019-04-25T21:44:31.944Z,36.55
2019-04-25T21:47:00.646Z,36.56
2019-04-25T21:49:29.423Z,36.62
2019-04-25T21:51:58.902Z,36.69
2019-04-25T21:54:27.591Z,36.77
2019-04-25T21:56:57.425Z,36.80
2019-04-25T21:59:26.236Z,36.80
2019-04-25T22:01:55.417Z,36.86
2019-04-25T22:04:24.722Z,37.00
2019-04-25T22:06:54.159Z,37.06
2019-04-25T22:09:23.242Z,37.19
2019-04-25T22:11:52.016Z,37.24
2019-04-25T22:14:20.770Z,37.24
2019-04-25T22:16:49.995Z,37.23
2019-04-25T22:19:18.929Z,37.31
2019-04-25T22:21:47.681Z,37.26
2019-04-25T22:24:16.597Z,37.33
2019-04-25T22:26:46.910Z,37.33
2019-04-25T22:29:15.519Z,37.26
2019-04-25T22:31:51.532Z,37.29
2019-04-25T22:34:29.047Z,37.28
2019-04-25T22:37:00.556Z,37.38
2019-04-25T22:39:29.034Z,37.42
2019-04-25T22:41:57.713Z,37.45
2019-04-25T22:44:26.480Z,37.48
2019-04-25T22:46:55.497Z,37.49
2019-04-25T22:49:23.937Z,37.48
2019-04-25T22:51:52.652Z,37.53
2019-04-25T22:54:22.666Z,37.50
2019-04-25T22:56:51.256Z,37.56
2019-04-25T22:59:19.908Z,37.55
2019-04-25T23:02:00.806Z,37.62
2019-04-25T23:05:05.446Z,37.57
2019-04-25T23:07:27.942Z,37.55
2019-04-25T23:09:56.822Z,37.57
2019-04-25T23:12:25.637Z,37.55
2019-04-25T23:14:54.106Z,37.57
2019-04-25T23:17:22.787Z,37.61
2019-04-25T23:19:51.536Z,37.63
2019-04-25T23:22:20.006Z,37.63
2019-04-25T23:25:00.328Z,37.68
2019-04-25T23:27:46.662Z,37.67
2019-04-25T23:30:17.441Z,37.78
2019-04-25T23:32:45.996Z,37.91
2019-04-25T23:35:27.993Z,37.80
2019-04-25T23:37:44.692Z,37.82
2019-04-25T23:40:13.724Z,37.81
2019-04-25T23:42:42.563Z,37.80
2019-04-25T23:45:11.020Z,37.86
2019-04-25T23:47:39.571Z,37.87
2019-04-25T23:50:08.663Z,37.93
2019-04-25T23:52:37.139Z,37.99
2019-04-25T23:55:06.769Z,37.94
2019-04-25T23:57:36.035Z,37.98
